createdAt,value
2022-12-20T00:00:09.285Z,101693.94
2022-12-20T00:00:33.630Z,101691.25
2022-12-20T00:01:00.459Z,101690.38
2022-12-20T00:01:15.686Z,101685.97
2022-12-20T00:01:30.974Z,101690.38
2022-12-20T00:01:43.706Z,101688.66
2022-12-20T00:01:56.495Z,101691.25
2022-12-20T00:02:10.296Z,101693.91
2022-12-20T00:02:23.355Z,101691.25
2022-12-20T00:02:37.572Z,101692.97
2022-12-20T00:02:50.284Z,101685.84
2022-12-20T00:03:03.116Z,101691.19
2022-12-20T00:03:16.527Z,101688.50
2022-12-20T00:03:29.125Z,101692.84
2022-12-20T00:03:42.139Z,101689.44
2022-12-20T00:03:57.066Z,101687.69
2022-12-20T00:04:12.657Z,101696.53
2022-12-20T00:04:25.259Z,101694.72
2022-12-20T00:04:37.891Z,101690.28
2022-12-20T00:04:50.507Z,101688.53
2022-12-20T00:05:03.243Z,101686.78
2022-12-20T00:05:17.012Z,101692.97
2022-12-20T00:05:29.575Z,101689.44
2022-12-20T00:05:43.303Z,101691.19
2022-12-20T00:05:55.881Z,101690.31
2022-12-20T00:06:08.883Z,101692.06
2022-12-20T00:06:22.357Z,101698.25
2022-12-20T00:06:37.209Z,101687.72
2022-12-20T00:06:50.056Z,101696.47
2022-12-20T00:07:02.705Z,101695.56
2022-12-20T00:07:15.317Z,101698.22
2022-12-20T00:07:27.893Z,101699.06
2022-12-20T00:07:40.520Z,101695.50
2022-12-20T00:07:54.181Z,101696.41
2022-12-20T00:08:07.155Z,101694.59
2022-12-20T00:08:19.763Z,101697.25
2022-12-20T00:08:32.575Z,101700.72
2022-12-20T00:08:45.496Z,101700.69
2022-12-20T00:09:00.296Z,101691.91
2022-12-20T00:09:13.948Z,101696.31
2022-12-20T00:09:26.539Z,101697.19
2022-12-20T00:09:39.191Z,101690.13
2022-12-20T00:09:51.776Z,101698.06
2022-12-20T00:10:05.229Z,101698.06
2022-12-20T00:10:17.812Z,101694.59
2022-12-20T00:10:31.415Z,101698.06
2022-12-20T00:10:45.886Z,101695.41
2022-12-20T00:11:00.955Z,101698.91
2022-12-20T00:11:14.290Z,101695.41
2022-12-20T00:11:28.005Z,101688.38
2022-12-20T00:11:42.728Z,101693.66
2022-12-20T00:11:55.323Z,101691.03
2022-12-20T00:12:08.009Z,101694.56
2022-12-20T00:12:20.586Z,101693.66
2022-12-20T00:12:33.182Z,101697.19
2022-12-20T00:12:45.759Z,101691.03
2022-12-20T00:12:58.329Z,101698.06
2022-12-20T00:13:13.409Z,101697.13
2022-12-20T00:13:26.015Z,101690.13
2022-12-20T00:13:39.245Z,101696.31
2022-12-20T00:13:52.117Z,101697.19
2022-12-20T00:14:04.874Z,101692.75
2022-12-20T00:14:17.987Z,101693.66
2022-12-20T00:14:31.587Z,101698.94
2022-12-20T00:14:44.202Z,101693.66
2022-12-20T00:14:56.825Z,101691.91
2022-12-20T00:15:10.085Z,101695.41
2022-12-20T00:15:22.949Z,101697.19
2022-12-20T00:15:36.076Z,101698.94
2022-12-20T00:15:48.686Z,101699.75
2022-12-20T00:16:06.797Z,101694.47
2022-12-20T00:16:21.897Z,101698.06
2022-12-20T00:16:35.862Z,101694.47
2022-12-20T00:16:48.517Z,101700.66
2022-12-20T00:17:01.121Z,101694.47
2022-12-20T00:17:13.777Z,101695.38
2022-12-20T00:17:26.544Z,101693.59
2022-12-20T00:17:40.639Z,101690.94
2022-12-20T00:17:54.376Z,101700.50
2022-12-20T00:18:07.338Z,101696.97
2022-12-20T00:18:20.010Z,101685.50
2022-12-20T00:18:32.705Z,101696.91
2022-12-20T00:18:45.683Z,101695.22
2022-12-20T00:18:59.853Z,101696.97
2022-12-20T00:19:13.816Z,101688.25
2022-12-20T00:19:26.416Z,101695.22
2022-12-20T00:19:39.273Z,101691.69
2022-12-20T00:19:51.903Z,101688.19
2022-12-20T00:20:05.910Z,101685.53
2022-12-20T00:20:18.523Z,101689.03
2022-12-20T00:20:32.425Z,101691.69
2022-12-20T00:20:45.022Z,101683.75
2022-12-20T00:20:58.553Z,101682.88
2022-12-20T00:21:13.023Z,101679.41
2022-12-20T00:21:25.976Z,101685.53
2022-12-20T00:21:38.677Z,101685.53
2022-12-20T00:21:52.319Z,101686.38
2022-12-20T00:22:04.977Z,101689.00
2022-12-20T00:22:17.581Z,101683.75
2022-12-20T00:22:30.185Z,101687.28
2022-12-20T00:22:42.805Z,101687.28
2022-12-20T00:22:55.944Z,101685.50
2022-12-20T00:23:08.539Z,101682.00
2022-12-20T00:23:21.148Z,101683.75
2022-12-20T00:23:36.201Z,101687.28
2022-12-20T00:23:49.034Z,101686.34
2022-12-20T00:24:01.808Z,101691.63
2022-12-20T00:24:15.615Z,101689.00
2022-12-20T00:24:30.900Z,101688.94
2022-12-20T00:24:44.617Z,101687.16
2022-12-20T00:24:57.191Z,101686.34
2022-12-20T00:25:10.035Z,101682.81
2022-12-20T00:25:22.864Z,101690.75
2022-12-20T00:25:35.519Z,101686.34
2022-12-20T00:25:48.094Z,101686.34
2022-12-20T00:26:02.023Z,101689.00
2022-12-20T00:26:18.194Z,101688.19
2022-12-20T00:26:33.179Z,101682.00
2022-12-20T00:26:45.883Z,101685.44
2022-12-20T00:26:58.530Z,101684.63
2022-12-20T00:27:12.126Z,101683.72
2022-12-20T00:27:24.904Z,101684.56
2022-12-20T00:27:37.499Z,101677.56
2022-12-20T00:27:50.693Z,101675.78
2022-12-20T00:28:04.260Z,101681.91
2022-12-20T00:28:16.927Z,101683.66
2022-12-20T00:28:29.838Z,101675.72
2022-12-20T00:28:43.208Z,101679.28
2022-12-20T00:28:57.148Z,101674.88
2022-12-20T00:29:09.807Z,101678.38
2022-12-20T00:29:22.419Z,101681.06
2022-12-20T00:29:35.474Z,101681.06
2022-12-20T00:29:48.095Z,101680.16
2022-12-20T00:30:00.689Z,101682.81
2022-12-20T00:30:14.275Z,101680.16
2022-12-20T00:30:28.038Z,101677.53
2022-12-20T00:30:40.638Z,101676.63
2022-12-20T00:30:54.172Z,101681.03
2022-12-20T00:31:12.517Z,101674.00
2022-12-20T00:31:26.664Z,101674.00
2022-12-20T00:31:39.923Z,101677.53
2022-12-20T00:31:52.771Z,101674.88
2022-12-20T00:32:06.614Z,101674.88
2022-12-20T00:32:19.202Z,101674.00
2022-12-20T00:32:32.116Z,101677.53
2022-12-20T00:32:46.387Z,101673.13
2022-12-20T00:32:58.974Z,101675.72
2022-12-20T00:33:11.570Z,101672.22
2022-12-20T00:33:24.334Z,101679.22
2022-12-20T00:33:39.728Z,101673.19
2022-12-20T00:33:55.228Z,101673.94
2022-12-20T00:34:07.815Z,101674.81
2022-12-20T00:34:21.048Z,101676.56
2022-12-20T00:34:33.691Z,101680.97
2022-12-20T00:34:46.309Z,101677.44
2022-12-20T00:34:59.924Z,101672.94
2022-12-20T00:35:13.165Z,101664.19
2022-12-20T00:35:25.828Z,101663.34
2022-12-20T00:35:42.617Z,101672.06
2022-12-20T00:35:56.274Z,101669.44
2022-12-20T00:36:09.621Z,101670.34
2022-12-20T00:36:24.822Z,101676.50
2022-12-20T00:36:39.623Z,101664.19
2022-12-20T00:36:52.476Z,101673.06
2022-12-20T00:37:05.137Z,101670.28
2022-12-20T00:37:17.710Z,101676.38
2022-12-20T00:37:30.387Z,101670.16
2022-12-20T00:37:43.005Z,101666.66
2022-12-20T00:37:56.560Z,101671.09
2022-12-20T00:38:09.150Z,101658.78
2022-12-20T00:38:21.772Z,101664.06
2022-12-20T00:38:34.673Z,101663.22
2022-12-20T00:38:48.824Z,101666.72
2022-12-20T00:39:01.599Z,101662.34
2022-12-20T00:39:14.231Z,101664.06
2022-12-20T00:39:27.812Z,101665.81
2022-12-20T00:39:40.402Z,101667.66
2022-12-20T00:39:53.016Z,101669.34
2022-12-20T00:40:07.232Z,101664.97
2022-12-20T00:40:19.979Z,101670.25
2022-12-20T00:40:32.590Z,101669.34
2022-12-20T00:40:45.181Z,101668.47
2022-12-20T00:41:02.912Z,101667.66
2022-12-20T00:41:18.006Z,101668.50
2022-12-20T00:41:32.307Z,101663.22
2022-12-20T00:41:44.991Z,101664.97
2022-12-20T00:41:57.601Z,101671.09
2022-12-20T00:42:10.196Z,101662.34
2022-12-20T00:42:23.042Z,101671.09
2022-12-20T00:42:36.711Z,101671.97
2022-12-20T00:42:49.286Z,101665.81
2022-12-20T00:43:01.936Z,101664.97
2022-12-20T00:43:14.509Z,101653.50
2022-12-20T00:43:27.206Z,101666.72
2022-12-20T00:43:40.635Z,101672.88
2022-12-20T00:43:53.538Z,101668.47
2022-12-20T00:44:07.102Z,101663.13
2022-12-20T00:44:19.679Z,101669.31
2022-12-20T00:44:32.283Z,101669.31
2022-12-20T00:44:44.862Z,101664.03
2022-12-20T00:44:57.462Z,101672.81
2022-12-20T00:45:10.713Z,101671.97
2022-12-20T00:45:23.314Z,101665.81
2022-12-20T00:45:36.220Z,101664.06
2022-12-20T00:45:48.880Z,101664.03
2022-12-20T00:46:02.842Z,101665.78
2022-12-20T00:46:16.961Z,101661.38
2022-12-20T00:46:31.673Z,101665.81
2022-12-20T00:46:44.522Z,101661.44
2022-12-20T00:46:57.190Z,101661.38
2022-12-20T00:47:10.231Z,101668.47
2022-12-20T00:47:23.910Z,101668.47
2022-12-20T00:47:36.537Z,101660.53
2022-12-20T00:47:50.467Z,101665.81
2022-12-20T00:48:03.075Z,101665.81
2022-12-20T00:48:15.663Z,101663.16
2022-12-20T00:48:29.985Z,101668.47
2022-12-20T00:48:42.608Z,101671.09
2022-12-20T00:48:57.217Z,101668.47
2022-12-20T00:49:09.793Z,101670.25
2022-12-20T00:49:22.560Z,101670.16
2022-12-20T00:49:35.191Z,101668.47
2022-12-20T00:49:48.093Z,101664.03
2022-12-20T00:50:00.682Z,101672.81
2022-12-20T00:50:13.713Z,101665.81
2022-12-20T00:50:27.339Z,101667.53
2022-12-20T00:50:39.926Z,101667.53
2022-12-20T00:50:52.998Z,101674.56
2022-12-20T00:51:07.626Z,101672.72
2022-12-20T00:51:22.736Z,101670.97
2022-12-20T00:51:35.390Z,101665.69
2022-12-20T00:51:48.993Z,101671.78
2022-12-20T00:52:01.583Z,101665.66
2022-12-20T00:52:14.173Z,101671.78
2022-12-20T00:52:26.776Z,101670.91
2022-12-20T00:52:39.433Z,101669.16
2022-12-20T00:52:51.992Z,101666.50
2022-12-20T00:53:04.608Z,101670.91
2022-12-20T00:53:24.447Z,101671.72
2022-12-20T00:53:39.579Z,101673.47
2022-12-20T00:53:52.967Z,101669.16
2022-12-20T00:54:05.858Z,101669.00
2022-12-20T00:54:19.462Z,101675.16
2022-12-20T00:54:32.045Z,101668.13
2022-12-20T00:54:44.706Z,101675.22
2022-12-20T00:54:57.305Z,101673.41
2022-12-20T00:55:09.990Z,101671.72
2022-12-20T00:55:22.662Z,101672.59
2022-12-20T00:55:35.378Z,101676.91
2022-12-20T00:55:47.981Z,101680.50
2022-12-20T00:56:01.658Z,101676.06
2022-12-20T00:56:14.784Z,101665.50
2022-12-20T00:56:27.567Z,101675.16
2022-12-20T00:56:40.166Z,101676.91
2022-12-20T00:56:52.760Z,101672.53
2022-12-20T00:57:05.451Z,101672.53
2022-12-20T00:57:19.030Z,101668.13
2022-12-20T00:57:31.627Z,101669.88
2022-12-20T00:57:44.208Z,101676.06
2022-12-20T00:57:56.872Z,101672.53
2022-12-20T00:58:09.572Z,101670.78
2022-12-20T00:58:22.374Z,101673.41
2022-12-20T00:58:37.574Z,101674.22
2022-12-20T00:58:50.450Z,101673.38
2022-12-20T00:59:03.045Z,101676.03
2022-12-20T00:59:15.716Z,101678.66
2022-12-20T00:59:28.313Z,101681.31
2022-12-20T00:59:40.905Z,101684.81
2022-12-20T00:59:54.537Z,101678.66
2022-12-20T01:00:08.401Z,101676.91
2022-12-20T01:00:21.434Z,101677.81
2022-12-20T01:00:34.060Z,101676.88
2022-12-20T01:00:52.250Z,101677.72
2022-12-20T01:01:18.725Z,101678.63
2022-12-20T01:01:34.846Z,101675.97
2022-12-20T01:01:48.316Z,101675.97
2022-12-20T01:02:01.180Z,101679.50
2022-12-20T01:02:14.059Z,101674.22
2022-12-20T01:02:27.266Z,101669.78
2022-12-20T01:02:40.074Z,101678.63
2022-12-20T01:02:54.287Z,101683.91
2022-12-20T01:03:08.818Z,101681.25
2022-12-20T01:03:22.158Z,101670.69
2022-12-20T01:03:35.131Z,101676.78
2022-12-20T01:03:48.026Z,101676.78
2022-12-20T01:04:01.491Z,101674.06
2022-12-20T01:04:15.119Z,101668.78
2022-12-20T01:04:27.845Z,101677.56
2022-12-20T01:04:40.423Z,101675.84
2022-12-20T01:04:53.045Z,101677.63
2022-12-20T01:05:06.316Z,101678.50
2022-12-20T01:05:19.115Z,101674.06
2022-12-20T01:05:31.849Z,101677.56
2022-12-20T01:05:52.940Z,101669.53
2022-12-20T01:06:05.955Z,101673.91
2022-12-20T01:06:19.618Z,101673.03
2022-12-20T01:06:32.535Z,101678.34
2022-12-20T01:06:45.456Z,101669.50
2022-12-20T01:06:58.995Z,101674.88
2022-12-20T01:07:11.575Z,101667.75
2022-12-20T01:07:24.725Z,101675.72
2022-12-20T01:07:37.324Z,101671.34
2022-12-20T01:07:49.910Z,101677.47
2022-12-20T01:08:02.551Z,101670.44
2022-12-20T01:08:15.592Z,101672.19
2022-12-20T01:08:30.817Z,101672.16
2022-12-20T01:08:43.818Z,101662.47
2022-12-20T01:08:56.873Z,101671.25
2022-12-20T01:09:10.950Z,101664.13
2022-12-20T01:09:23.532Z,101666.78
2022-12-20T01:09:36.120Z,101666.78
2022-12-20T01:09:50.373Z,101666.78
2022-12-20T01:10:03.141Z,101664.13
2022-12-20T01:10:15.853Z,101670.34
2022-12-20T01:10:28.532Z,101663.28
2022-12-20T01:10:41.173Z,101666.78
2022-12-20T01:11:00.362Z,101672.06
2022-12-20T01:11:15.797Z,101663.28
2022-12-20T01:11:33.211Z,101665.91
2022-12-20T01:11:45.797Z,101661.50
2022-12-20T01:11:58.416Z,101663.28
2022-12-20T01:12:11.458Z,101664.13
2022-12-20T01:12:24.055Z,101663.22
2022-12-20T01:12:36.634Z,101665.88
2022-12-20T01:12:49.271Z,101654.44
2022-12-20T01:13:02.872Z,101655.34
2022-12-20T01:13:15.471Z,101664.09
2022-12-20T01:13:29.480Z,101659.72
2022-12-20T01:13:44.303Z,101661.50
2022-12-20T01:14:02.257Z,101651.81
2022-12-20T01:14:16.016Z,101654.38
2022-12-20T01:14:29.659Z,101647.38
2022-12-20T01:14:42.349Z,101653.50
2022-12-20T01:14:55.241Z,101652.66
2022-12-20T01:15:09.027Z,101650.88
2022-12-20T01:15:21.862Z,101650.88
2022-12-20T01:15:35.343Z,101650.91
2022-12-20T01:15:47.937Z,101653.50
2022-12-20T01:16:04.907Z,101650.91
2022-12-20T01:16:22.175Z,101652.66
2022-12-20T01:16:37.587Z,101645.53
2022-12-20T01:16:50.312Z,101645.56
2022-12-20T01:17:03.046Z,101653.47
2022-12-20T01:17:15.677Z,101649.88
2022-12-20T01:17:29.257Z,101654.31
2022-12-20T01:17:41.997Z,101653.28
2022-12-20T01:17:55.976Z,101648.75
2022-12-20T01:18:08.614Z,101650.59
2022-12-20T01:18:21.780Z,101650.59
2022-12-20T01:18:34.544Z,101650.59
2022-12-20T01:18:48.473Z,101641.75
2022-12-20T01:19:02.930Z,101643.56
2022-12-20T01:19:17.294Z,101654.16
2022-12-20T01:19:29.889Z,101650.59
2022-12-20T01:19:42.756Z,101644.50
2022-12-20T01:19:55.345Z,101650.69
2022-12-20T01:20:08.816Z,101650.69
2022-12-20T01:20:21.417Z,101645.41
2022-12-20T01:20:34.032Z,101655.09
2022-12-20T01:20:47.612Z,101647.16
2022-12-20T01:21:05.092Z,101650.66
2022-12-20T01:21:19.922Z,101650.69
2022-12-20T01:21:32.962Z,101644.59
2022-12-20T01:21:45.608Z,101655.09
2022-12-20T01:21:58.290Z,101655.00
2022-12-20T01:22:11.846Z,101641.91
2022-12-20T01:22:24.436Z,101654.16
2022-12-20T01:22:41.042Z,101647.16
2022-12-20T01:22:56.395Z,101650.69
2022-12-20T01:23:08.999Z,101650.69
2022-12-20T01:23:21.596Z,101648.88
2022-12-20T01:23:34.309Z,101643.56
2022-12-20T01:23:48.868Z,101644.44
2022-12-20T01:24:01.752Z,101645.31
2022-12-20T01:24:16.664Z,101644.44
2022-12-20T01:24:29.258Z,101645.38
2022-12-20T01:24:41.894Z,101645.31
2022-12-20T01:24:54.558Z,101644.38
2022-12-20T01:25:07.916Z,101649.69
2022-12-20T01:25:21.522Z,101645.31
2022-12-20T01:25:34.096Z,101647.03
2022-12-20T01:25:47.522Z,101642.66
2022-12-20T01:26:01.264Z,101643.53
2022-12-20T01:26:16.341Z,101640.88
2022-12-20T01:26:30.239Z,101641.75
2022-12-20T01:26:43.464Z,101640.03
2022-12-20T01:26:57.064Z,101640.88
2022-12-20T01:27:09.654Z,101646.22
2022-12-20T01:27:22.449Z,101648.81
2022-12-20T01:27:35.108Z,101647.03
2022-12-20T01:27:47.704Z,101640.81
2022-12-20T01:28:00.350Z,101646.09
2022-12-20T01:28:12.950Z,101648.75
2022-12-20T01:28:25.943Z,101654.09
2022-12-20T01:28:40.734Z,101653.19
2022-12-20T01:28:55.943Z,101650.47
2022-12-20T01:29:08.645Z,101647.88
2022-12-20T01:29:21.644Z,101652.31
2022-12-20T01:29:34.267Z,101653.25
2022-12-20T01:29:46.893Z,101649.69
2022-12-20T01:29:59.450Z,101647.97
2022-12-20T01:30:13.845Z,101651.38
2022-12-20T01:30:26.468Z,101648.75
2022-12-20T01:30:40.666Z,101650.53
2022-12-20T01:30:53.292Z,101648.75
2022-12-20T01:31:07.736Z,101658.41
2022-12-20T01:31:20.747Z,101648.75
2022-12-20T01:31:35.071Z,101653.94
2022-12-20T01:31:47.710Z,101660.13
2022-12-20T01:32:00.442Z,101652.19
2022-12-20T01:32:13.124Z,101648.75
2022-12-20T01:32:26.080Z,101651.38
2022-12-20T01:32:38.675Z,101650.47
2022-12-20T01:32:51.276Z,101647.88
2022-12-20T01:33:05.347Z,101645.19
2022-12-20T01:33:18.963Z,101648.69
2022-12-20T01:33:31.653Z,101645.31
2022-12-20T01:33:45.332Z,101652.28
2022-12-20T01:33:58.755Z,101654.84
2022-12-20T01:34:11.875Z,101648.75
2022-12-20T01:34:24.460Z,101655.66
2022-12-20T01:34:38.084Z,101649.50
2022-12-20T01:34:50.803Z,101655.47
2022-12-20T01:35:04.034Z,101653.78
2022-12-20T01:35:16.817Z,101653.81
2022-12-20T01:35:29.411Z,101653.81
2022-12-20T01:35:42.078Z,101661.75
2022-12-20T01:35:59.869Z,101656.47
2022-12-20T01:36:16.674Z,101654.69
2022-12-20T01:36:32.065Z,101656.47
2022-12-20T01:36:44.934Z,101648.53
2022-12-20T01:36:57.539Z,101652.09
2022-12-20T01:37:10.367Z,101650.31
2022-12-20T01:37:22.968Z,101654.75
2022-12-20T01:37:35.602Z,101647.72
2022-12-20T01:37:49.582Z,101651.28
2022-12-20T01:38:02.227Z,101646.09
2022-12-20T01:38:14.831Z,101650.47
2022-12-20T01:38:28.435Z,101646.03
2022-12-20T01:38:41.418Z,101636.41
2022-12-20T01:38:57.562Z,101639.06
2022-12-20T01:39:14.625Z,101634.63
2022-12-20T01:39:27.223Z,101626.72
2022-12-20T01:39:39.875Z,101629.38
2022-12-20T01:39:52.577Z,101625.88
2022-12-20T01:40:06.527Z,101625.88
2022-12-20T01:40:19.723Z,101625.88
2022-12-20T01:40:32.324Z,101625.88
2022-12-20T01:40:44.926Z,101627.66
2022-12-20T01:40:59.065Z,101626.72
2022-12-20T01:41:15.581Z,101624.84
2022-12-20T01:41:30.760Z,101628.34
2022-12-20T01:41:45.514Z,101630.13
2022-12-20T01:41:59.240Z,101627.50
2022-12-20T01:42:14.537Z,101619.66
2022-12-20T01:42:27.137Z,101623.19
2022-12-20T01:42:39.703Z,101620.47
2022-12-20T01:42:52.351Z,101624.03
2022-12-20T01:43:04.996Z,101624.88
2022-12-20T01:43:19.093Z,101631.03
2022-12-20T01:43:48.761Z,101624.03
2022-12-20T01:44:04.598Z,101623.19
2022-12-20T01:44:53.193Z,101625.75
2022-12-20T01:45:13.402Z,101630.91
2022-12-20T01:45:31.636Z,101622.06
2022-12-20T01:45:44.597Z,101629.09
2022-12-20T01:45:57.293Z,101623.00
2022-12-20T01:46:10.002Z,101624.72
2022-12-20T01:46:25.204Z,101623.00
2022-12-20T01:46:37.872Z,101626.50
2022-12-20T01:46:51.857Z,101625.66
2022-12-20T01:47:05.575Z,101620.41
2022-12-20T01:47:18.212Z,101619.50
2022-12-20T01:47:34.495Z,101623.91
2022-12-20T01:47:47.786Z,101628.34
2022-12-20T01:48:01.388Z,101631.03
2022-12-20T01:48:18.972Z,101631.03
2022-12-20T01:48:31.645Z,101626.63
2022-12-20T01:48:49.197Z,101625.69
2022-12-20T01:49:07.145Z,101623.91
2022-12-20T01:49:22.910Z,101625.75
2022-12-20T01:49:40.702Z,101624.78
2022-12-20T01:49:57.630Z,101627.38
2022-12-20T01:50:10.320Z,101623.91
2022-12-20T01:50:23.578Z,101624.78
2022-12-20T01:50:37.473Z,101628.28
2022-12-20T01:50:51.848Z,101629.19
2022-12-20T01:51:05.040Z,101625.66
2022-12-20T01:51:18.899Z,101622.06
2022-12-20T01:51:34.335Z,101625.53
2022-12-20T01:51:50.772Z,101619.34
2022-12-20T01:52:07.632Z,101624.66
2022-12-20T01:52:30.207Z,101626.47
2022-12-20T01:52:46.904Z,101622.03
2022-12-20T01:53:00.198Z,101616.78
2022-12-20T01:53:12.858Z,101620.31
2022-12-20T01:53:25.555Z,101618.53
2022-12-20T01:53:38.912Z,101622.06
2022-12-20T01:53:57.209Z,101620.31
2022-12-20T01:54:14.258Z,101622.97
2022-12-20T01:54:31.993Z,101609.78
2022-12-20T01:54:48.847Z,101606.34
2022-12-20T01:55:07.340Z,101610.63
2022-12-20T01:55:23.500Z,101610.69
2022-12-20T01:55:37.834Z,101608.16
2022-12-20T01:55:50.858Z,101613.34
2022-12-20T01:56:06.831Z,101608.97
2022-12-20T01:56:19.482Z,101606.34
2022-12-20T01:56:32.247Z,101611.66
2022-12-20T01:56:50.443Z,101608.97
2022-12-20T01:57:07.039Z,101604.59
2022-12-20T01:57:25.281Z,101608.97
2022-12-20T01:57:43.997Z,101608.03
2022-12-20T01:58:02.004Z,101606.34
2022-12-20T01:58:16.947Z,101606.34
2022-12-20T01:58:30.409Z,101607.22
2022-12-20T01:58:47.294Z,101601.94
2022-12-20T01:59:01.048Z,101608.16
2022-12-20T01:59:14.180Z,101606.34
2022-12-20T01:59:28.702Z,101602.84
2022-12-20T01:59:46.613Z,101608.03
2022-12-20T01:59:59.330Z,101606.09
2022-12-20T02:00:14.087Z,101609.56
2022-12-20T02:00:26.832Z,101604.28
2022-12-20T02:00:39.510Z,101611.41
2022-12-20T02:00:52.234Z,101609.66
2022-12-20T02:01:05.754Z,101605.22
2022-12-20T02:01:18.702Z,101609.66
2022-12-20T02:01:32.628Z,101605.22
2022-12-20T02:01:46.250Z,101607.94
2022-12-20T02:02:03.650Z,101607.09
2022-12-20T02:02:16.705Z,101613.25
2022-12-20T02:02:29.644Z,101607.94
2022-12-20T02:02:43.944Z,101611.41
2022-12-20T02:03:02.520Z,101598.28
2022-12-20T02:03:17.159Z,101605.31
2022-12-20T02:03:31.063Z,101601.81
2022-12-20T02:03:44.472Z,101607.09
2022-12-20T02:03:57.090Z,101601.81
2022-12-20T02:04:10.034Z,101607.94
2022-12-20T02:04:22.610Z,101599.16
2022-12-20T02:04:35.470Z,101601.81
2022-12-20T02:04:49.060Z,101598.28
2022-12-20T02:05:02.173Z,101603.56
2022-12-20T02:05:15.396Z,101607.94
2022-12-20T02:05:28.066Z,101600.00
2022-12-20T02:05:43.340Z,101602.66
2022-12-20T02:05:55.923Z,101606.19
2022-12-20T02:06:18.228Z,101607.09
2022-12-20T02:06:31.832Z,101604.38
2022-12-20T02:06:44.403Z,101607.00
2022-12-20T02:06:58.129Z,101603.50
2022-12-20T02:07:17.495Z,101606.19
2022-12-20T02:07:35.015Z,101599.94
2022-12-20T02:07:51.738Z,101596.56
2022-12-20T02:08:07.291Z,101599.06
2022-12-20T02:08:20.639Z,101607.94
2022-12-20T02:08:33.304Z,101601.81
2022-12-20T02:08:48.672Z,101611.50
2022-12-20T02:09:04.672Z,101606.19
2022-12-20T02:09:17.685Z,101604.50
2022-12-20T02:09:33.342Z,101600.06
2022-12-20T02:09:46.735Z,101601.84
2022-12-20T02:10:01.526Z,101602.75
2022-12-20T02:10:14.664Z,101601.84
2022-12-20T02:10:35.892Z,101604.50
2022-12-20T02:11:02.953Z,101598.34
2022-12-20T02:11:31.060Z,101601.84
2022-12-20T02:11:58.389Z,101590.34
2022-12-20T02:12:14.456Z,101601.84
2022-12-20T02:12:31.834Z,101593.06
2022-12-20T02:12:46.325Z,101601.00
2022-12-20T02:13:08.742Z,101605.34
2022-12-20T02:13:29.700Z,101603.56
2022-12-20T02:13:51.663Z,101606.19
2022-12-20T02:14:14.621Z,101607.13
2022-12-20T02:14:36.652Z,101609.78
2022-12-20T02:15:05.928Z,101608.00
2022-12-20T02:15:40.026Z,101602.69
2022-12-20T02:15:56.013Z,101600.06
2022-12-20T02:16:10.950Z,101601.81
2022-12-20T02:16:28.096Z,101606.19
2022-12-20T02:16:48.709Z,101600.91
2022-12-20T02:17:11.055Z,101596.50
2022-12-20T02:17:35.856Z,101599.22
2022-12-20T02:17:58.778Z,101594.78
2022-12-20T02:18:22.636Z,101599.22
2022-12-20T02:18:42.015Z,101601.84
2022-12-20T02:19:01.747Z,101595.63
2022-12-20T02:19:44.560Z,101596.56
2022-12-20T02:20:25.765Z,101596.50
2022-12-20T02:21:07.654Z,101606.16
2022-12-20T02:21:31.930Z,101605.22
2022-12-20T02:21:51.125Z,101605.22
2022-12-20T02:22:15.264Z,101609.66
2022-12-20T02:22:42.173Z,101611.41
2022-12-20T02:23:17.904Z,101614.94
2022-12-20T02:24:01.052Z,101603.56
2022-12-20T02:25:05.902Z,101601.66
2022-12-20T02:25:42.592Z,101607.81
2022-12-20T02:26:13.486Z,101606.97
2022-12-20T02:26:46.491Z,101610.47
2022-12-20T02:27:29.339Z,101605.97
2022-12-20T02:27:51.111Z,101610.25
2022-12-20T02:28:11.769Z,101609.31
2022-12-20T02:28:43.416Z,101610.19
2022-12-20T02:29:10.937Z,101608.41
2022-12-20T02:29:27.101Z,101611.09
2022-12-20T02:29:58.148Z,101604.94
2022-12-20T02:30:15.513Z,101604.91
2022-12-20T02:30:32.673Z,101609.31
2022-12-20T02:30:49.581Z,101600.50
2022-12-20T02:31:06.919Z,101611.94
2022-12-20T02:31:27.715Z,101610.25
2022-12-20T02:31:44.337Z,101602.31
2022-12-20T02:32:04.121Z,101612.88
2022-12-20T02:32:22.525Z,101608.53
2022-12-20T02:32:39.600Z,101612.88
2022-12-20T02:32:57.976Z,101608.44
2022-12-20T02:33:13.042Z,101605.00
2022-12-20T02:33:28.455Z,101605.00
2022-12-20T02:33:43.959Z,101605.88
2022-12-20T02:33:59.049Z,101611.19
2022-12-20T02:34:12.904Z,101610.28
2022-12-20T02:34:26.687Z,101613.75
2022-12-20T02:34:41.631Z,101611.19
2022-12-20T02:34:56.265Z,101612.13
2022-12-20T02:35:12.937Z,101613.00
2022-12-20T02:35:27.925Z,101602.31
2022-12-20T02:35:41.901Z,101608.41
2022-12-20T02:35:54.623Z,101610.19
2022-12-20T02:36:07.779Z,101604.00
2022-12-20T02:36:21.453Z,101611.94
2022-12-20T02:36:34.129Z,101614.59
2022-12-20T02:36:46.731Z,101606.75
2022-12-20T02:36:59.520Z,101611.09
2022-12-20T02:37:12.305Z,101609.31
2022-12-20T02:37:25.671Z,101609.31
2022-12-20T02:37:47.763Z,101604.16
2022-12-20T02:38:03.604Z,101605.88
2022-12-20T02:38:29.993Z,101605.00
2022-12-20T02:38:42.580Z,101602.31
2022-12-20T02:38:55.353Z,101605.00
2022-12-20T02:39:10.248Z,101612.94
2022-12-20T02:39:25.042Z,101601.44
2022-12-20T02:39:41.415Z,101599.72
2022-12-20T02:39:54.352Z,101601.50
2022-12-20T02:40:08.427Z,101602.34
2022-12-20T02:40:24.799Z,101604.16
2022-12-20T02:40:40.924Z,101600.66
2022-12-20T02:40:59.194Z,101604.16
2022-12-20T02:41:16.035Z,101599.78
2022-12-20T02:41:34.153Z,101598.03
2022-12-20T02:41:51.805Z,101604.28
2022-12-20T02:42:07.791Z,101610.41
2022-12-20T02:42:25.031Z,101611.28
2022-12-20T02:42:37.840Z,101610.41
2022-12-20T02:42:54.393Z,101610.47
2022-12-20T02:43:31.736Z,101608.69
2022-12-20T02:44:06.401Z,101605.97
2022-12-20T02:44:43.044Z,101617.38
2022-12-20T02:45:19.701Z,101609.56
2022-12-20T02:45:36.819Z,101613.00
2022-12-20T02:45:50.589Z,101607.72
2022-12-20T02:46:04.274Z,101609.44
2022-12-20T02:46:19.828Z,101613.88
2022-12-20T02:46:34.829Z,101608.56
2022-12-20T02:46:49.933Z,101616.50
2022-12-20T02:47:05.814Z,101608.56
2022-12-20T02:47:22.873Z,101616.50
2022-12-20T02:47:40.204Z,101608.63
2022-12-20T02:47:59.157Z,101613.97
2022-12-20T02:48:12.044Z,101615.66
2022-12-20T02:48:27.502Z,101620.00
2022-12-20T02:48:42.153Z,101619.16
2022-12-20T02:48:59.289Z,101620.00
2022-12-20T02:49:16.710Z,101619.16
2022-12-20T02:49:32.596Z,101619.13
2022-12-20T02:49:47.372Z,101613.00
2022-12-20T02:50:00.983Z,101615.66
2022-12-20T02:50:15.221Z,101615.66
2022-12-20T02:50:33.966Z,101614.72
2022-12-20T02:50:50.340Z,101609.44
2022-12-20T02:51:06.180Z,101613.88
2022-12-20T02:51:21.644Z,101608.63